createdAt,value
2019-02-02T00:01:50.716Z,29.73
2019-02-02T00:04:31.685Z,29.57
2019-02-02T00:07:13.067Z,29.67
2019-02-02T00:09:53.852Z,24.10
2019-02-02T00:12:34.609Z,23.13
2019-02-02T00:15:15.482Z,29.37
2019-02-02T00:17:56.798Z,24.93
2019-02-02T00:20:37.822Z,25.73
2019-02-02T00:23:18.552Z,23.43
2019-02-02T00:25:59.577Z,28.50
2019-02-02T00:28:40.151Z,27.57
2019-02-02T00:31:21.595Z,31.87
2019-02-02T00:34:02.568Z,25.60
2019-02-02T00:36:43.601Z,31.43
2019-02-02T00:39:24.229Z,34.57
2019-02-02T00:42:05.032Z,27.07
2019-02-02T00:44:46.011Z,25.70
2019-02-02T00:47:26.935Z,26.87
2019-02-02T00:50:07.976Z,29.90
2019-02-02T00:52:49.109Z,31.10
2019-02-02T00:55:29.599Z,30.43
2019-02-02T00:58:10.535Z,32.20
2019-02-02T01:00:51.504Z,27.53
2019-02-02T01:03:32.837Z,33.00
2019-02-02T01:06:14.171Z,28.17
2019-02-02T01:08:54.985Z,28.40
2019-02-02T01:11:36.303Z,31.00
2019-02-02T01:14:17.050Z,30.10
2019-02-02T01:16:57.934Z,32.37
2019-02-02T01:19:38.638Z,31.83
2019-02-02T01:22:19.389Z,31.17
2019-02-02T01:25:00.667Z,31.00
2019-02-02T01:27:41.476Z,32.27
2019-02-02T01:30:22.792Z,29.60
2019-02-02T01:33:03.589Z,34.50
2019-02-02T01:35:44.827Z,30.60
2019-02-02T01:38:25.638Z,30.30
2019-02-02T01:41:06.496Z,34.70
2019-02-02T01:43:47.418Z,30.67
2019-02-02T01:46:28.234Z,30.37
2019-02-02T01:49:09.206Z,35.70
2019-02-02T01:51:50.178Z,31.77
2019-02-02T01:54:30.637Z,29.60
2019-02-02T01:57:11.394Z,30.60
2019-02-02T01:59:52.274Z,31.77
2019-02-02T02:02:33.030Z,35.53
2019-02-02T02:05:13.798Z,24.93
2019-02-02T02:07:54.686Z,35.03
2019-02-02T02:10:35.197Z,28.53
2019-02-02T02:13:16.168Z,35.47
2019-02-02T02:15:57.016Z,33.93
2019-02-02T02:18:37.738Z,31.13
2019-02-02T02:21:18.474Z,36.50
2019-02-02T02:23:59.191Z,34.43
2019-02-02T02:26:40.164Z,32.07
2019-02-02T02:29:20.939Z,36.30
2019-02-02T02:34:32.155Z,30.63
2019-02-02T02:37:01.602Z,38.77
2019-02-02T02:39:31.085Z,32.03
2019-02-02T02:42:19.321Z,39.70
2019-02-02T02:45:07.769Z,34.67
2019-02-02T02:47:48.512Z,37.23
2019-02-02T02:50:29.237Z,30.10
2019-02-02T02:53:09.965Z,33.90
2019-02-02T02:55:50.815Z,34.13
2019-02-02T02:58:41.145Z,31.73
2019-02-02T03:01:14.713Z,29.00
2019-02-02T03:03:55.794Z,36.07
2019-02-02T03:06:36.597Z,37.87
2019-02-02T03:09:17.408Z,28.13
2019-02-02T03:11:58.225Z,31.90
2019-02-02T03:14:39.083Z,27.87
2019-02-02T03:17:19.759Z,30.23
2019-02-02T03:20:00.279Z,30.00
2019-02-02T03:22:41.769Z,37.20
2019-02-02T03:25:22.448Z,34.17
2019-02-02T03:31:08.078Z,36.20
2019-02-02T03:33:49.501Z,36.50
2019-02-02T03:36:30.695Z,33.23
2019-02-02T03:39:12.064Z,33.73
2019-02-02T03:41:52.752Z,33.63
2019-02-02T03:44:33.874Z,34.63
2019-02-02T03:47:14.802Z,32.80
2019-02-02T03:49:55.684Z,32.50
2019-02-02T03:52:36.422Z,31.63
2019-02-02T03:55:15.930Z,35.87
2019-02-02T03:57:56.850Z,35.50
2019-02-02T04:00:37.873Z,31.07
2019-02-02T04:03:18.711Z,30.30
2019-02-02T04:05:59.323Z,40.50
2019-02-02T04:08:40.083Z,34.43
2019-02-02T04:11:20.815Z,36.03
2019-02-02T04:14:02.186Z,32.00
2019-02-02T04:16:42.963Z,32.37
2019-02-02T04:19:23.624Z,32.70
2019-02-02T04:22:04.314Z,35.83
2019-02-02T04:24:45.126Z,29.80
2019-02-02T04:27:25.787Z,32.70
2019-02-02T04:30:06.579Z,27.33
2019-02-02T04:32:47.195Z,29.27
2019-02-02T04:35:27.983Z,33.20
2019-02-02T04:38:08.707Z,33.70
2019-02-02T04:40:48.008Z,32.27
2019-02-02T04:43:36.223Z,32.77
2019-02-02T04:46:15.579Z,37.53
2019-02-02T04:49:04.041Z,33.00
2019-02-02T04:51:44.901Z,34.33
2019-02-02T04:54:25.833Z,34.20
2019-02-02T04:57:06.824Z,35.40
2019-02-02T04:59:47.291Z,33.37
2019-02-02T05:02:30.376Z,32.37
2019-02-02T05:05:11.169Z,33.77
2019-02-02T05:07:51.791Z,32.17
2019-02-02T05:10:32.531Z,36.17
2019-02-02T05:13:13.405Z,31.13
2019-02-02T05:15:54.181Z,32.97
2019-02-02T05:18:35.173Z,33.23
2019-02-02T05:21:16.116Z,34.47
2019-02-02T05:23:57.014Z,35.37
2019-02-02T05:26:37.849Z,40.37
2019-02-02T05:29:18.302Z,33.70
2019-02-02T05:31:59.082Z,30.07
2019-02-02T05:34:39.889Z,31.77
2019-02-02T05:37:20.725Z,35.60
2019-02-02T05:40:01.509Z,34.07
2019-02-02T05:42:42.467Z,34.23
2019-02-02T05:45:23.796Z,37.00
2019-02-02T05:48:04.746Z,33.37
2019-02-02T05:50:45.611Z,41.00
2019-02-02T05:53:26.436Z,34.37
2019-02-02T05:56:07.671Z,33.37
2019-02-02T05:58:49.168Z,36.30
2019-02-02T06:01:30.229Z,32.40
2019-02-02T06:04:11.623Z,36.17
2019-02-02T06:06:52.288Z,32.53
2019-02-02T06:09:33.638Z,35.93
2019-02-02T06:12:14.875Z,33.67
2019-02-02T06:14:55.761Z,37.13
2019-02-02T06:17:36.928Z,36.50
2019-02-02T06:20:17.731Z,41.93
2019-02-02T06:22:58.540Z,38.87
2019-02-02T06:25:39.098Z,35.03
2019-02-02T06:28:19.789Z,34.90
2019-02-02T06:31:00.744Z,36.77
2019-02-02T06:33:41.793Z,35.53
2019-02-02T06:36:21.181Z,39.67
2019-02-02T06:39:02.474Z,42.27
2019-02-02T06:41:43.452Z,37.17
2019-02-02T06:44:24.403Z,41.30
2019-02-02T06:47:05.208Z,34.90
2019-02-02T06:49:45.847Z,36.33
2019-02-02T06:52:26.721Z,38.57
2019-02-02T06:55:07.570Z,45.03
2019-02-02T06:57:48.655Z,39.47
2019-02-02T07:00:31.019Z,42.67
2019-02-02T07:03:13.447Z,43.53
2019-02-02T07:05:54.517Z,42.00
2019-02-02T07:11:18.904Z,39.30
2019-02-02T07:14:00.355Z,43.90
2019-02-02T07:16:41.757Z,45.47
2019-02-02T07:19:23.181Z,40.57
2019-02-02T07:22:03.940Z,45.67
2019-02-02T07:24:43.540Z,46.97
2019-02-02T07:27:24.621Z,44.70
2019-02-02T07:30:06.047Z,44.97
2019-02-02T07:32:46.661Z,43.20
2019-02-02T07:35:27.211Z,46.30
2019-02-02T07:38:07.877Z,50.40
2019-02-02T07:40:48.692Z,43.13
2019-02-02T07:43:29.540Z,51.27
2019-02-02T07:46:15.049Z,47.03
2019-02-02T07:48:53.245Z,44.30
2019-02-02T07:51:33.943Z,56.10
2019-02-02T07:54:14.704Z,49.03
2019-02-02T07:56:55.407Z,49.17
2019-02-02T07:59:36.575Z,54.00
2019-02-02T08:02:17.426Z,44.53
2019-02-02T08:04:58.157Z,50.07
2019-02-02T08:07:39.047Z,48.67
2019-02-02T08:10:19.793Z,51.40
2019-02-02T08:13:00.564Z,51.43
2019-02-02T08:15:41.636Z,51.73
2019-02-02T08:18:22.857Z,44.83
2019-02-02T08:21:04.226Z,47.93
2019-02-02T08:23:33.656Z,46.23
2019-02-02T08:26:21.382Z,54.60
2019-02-02T08:29:09.728Z,52.27
2019-02-02T08:31:50.944Z,58.53
2019-02-02T08:34:31.436Z,53.13
2019-02-02T08:40:17.704Z,51.73
2019-02-02T08:42:58.431Z,51.60
2019-02-02T08:45:39.270Z,55.57
2019-02-02T08:48:20.312Z,53.13
2019-02-02T08:51:01.812Z,54.50
2019-02-02T08:53:42.839Z,53.20
2019-02-02T08:56:23.687Z,55.77
2019-02-02T08:59:04.351Z,52.47
2019-02-02T09:01:48.052Z,56.57
2019-02-02T09:04:28.264Z,53.47
2019-02-02T09:07:09.121Z,51.63
2019-02-02T09:09:48.507Z,54.33
2019-02-02T09:12:29.908Z,52.67
2019-02-02T09:15:10.614Z,62.90
2019-02-02T09:17:51.633Z,50.77
2019-02-02T09:20:32.454Z,48.93
2019-02-02T09:23:13.842Z,57.23
2019-02-02T09:25:55.281Z,53.47
2019-02-02T09:28:35.997Z,55.10
2019-02-02T09:31:17.283Z,57.13
2019-02-02T09:36:56.757Z,56.67
2019-02-02T09:39:38.071Z,56.90
2019-02-02T09:42:18.801Z,54.83
2019-02-02T09:44:59.472Z,61.30
2019-02-02T09:47:40.717Z,55.97
2019-02-02T09:50:21.235Z,53.77
2019-02-02T09:53:02.474Z,59.63
2019-02-02T09:55:43.863Z,50.30
2019-02-02T09:58:13.753Z,60.03
2019-02-02T10:00:55.499Z,57.30
2019-02-02T10:03:36.690Z,57.77
2019-02-02T10:06:17.484Z,57.97
2019-02-02T10:08:58.160Z,49.63
2019-02-02T10:11:41.588Z,58.33
2019-02-02T10:14:22.607Z,56.00
2019-02-02T10:17:03.867Z,54.43
2019-02-02T10:19:44.473Z,52.93
2019-02-02T10:22:25.686Z,56.97
2019-02-02T10:25:07.276Z,52.17
2019-02-02T10:27:48.576Z,54.67
2019-02-02T10:30:29.293Z,59.20
2019-02-02T10:33:10.358Z,45.83
2019-02-02T10:35:51.225Z,45.93
2019-02-02T10:38:32.388Z,52.57
2019-02-02T10:41:13.498Z,54.37
2019-02-02T10:43:53.976Z,61.23
2019-02-02T10:46:35.078Z,61.43
2019-02-02T10:49:16.370Z,54.90
2019-02-02T10:51:57.140Z,55.47
2019-02-02T10:54:37.946Z,54.97
2019-02-02T10:57:18.655Z,57.57
2019-02-02T10:59:59.922Z,55.70
2019-02-02T11:02:40.725Z,51.43
2019-02-02T11:05:22.002Z,54.37
2019-02-02T11:08:04.392Z,51.30
2019-02-02T11:10:43.752Z,42.67
2019-02-02T11:13:24.316Z,54.73
2019-02-02T11:18:35.991Z,55.60
2019-02-02T11:21:05.422Z,56.17
2019-02-02T11:23:53.823Z,55.07
2019-02-02T11:26:42.200Z,48.07
2019-02-02T11:29:23.773Z,47.33
2019-02-02T11:32:05.079Z,52.43
2019-02-02T11:34:46.352Z,50.17
2019-02-02T11:37:32.037Z,48.50
2019-02-02T11:40:16.434Z,45.37
2019-02-02T11:42:59.144Z,55.40
2019-02-02T11:45:41.351Z,51.10
2019-02-02T11:48:22.098Z,55.23
2019-02-02T11:51:06.411Z,62.63
2019-02-02T11:53:46.949Z,43.13
2019-02-02T11:56:27.918Z,42.73
2019-02-02T11:59:08.473Z,50.67
2019-02-02T12:01:49.368Z,45.57
2019-02-02T12:04:30.699Z,51.20
2019-02-02T12:07:12.055Z,49.00
2019-02-02T12:09:53.537Z,47.47
2019-02-02T12:12:34.603Z,52.87
2019-02-02T12:15:15.457Z,56.77
2019-02-02T12:17:56.400Z,52.07
2019-02-02T12:20:37.166Z,51.87
2019-02-02T12:23:18.423Z,44.23
2019-02-02T12:25:59.300Z,39.27
2019-02-02T12:28:40.203Z,46.03
2019-02-02T12:31:20.733Z,46.40
2019-02-02T12:34:01.706Z,49.30
2019-02-02T12:36:42.384Z,49.37
2019-02-02T12:39:23.438Z,47.53
2019-02-02T12:42:04.092Z,53.03
2019-02-02T12:44:45.091Z,45.20
2019-02-02T12:47:25.707Z,46.93
2019-02-02T12:50:06.196Z,39.73
2019-02-02T12:52:47.527Z,47.87
2019-02-02T12:55:28.169Z,38.80
2019-02-02T12:58:09.393Z,46.17
2019-02-02T13:00:50.048Z,47.87
2019-02-02T13:03:30.682Z,47.53
2019-02-02T13:06:11.362Z,48.33
2019-02-02T13:08:50.793Z,47.87
2019-02-02T13:11:31.740Z,49.60
2019-02-02T13:14:13.049Z,42.77
2019-02-02T13:16:54.242Z,41.90
2019-02-02T13:19:34.936Z,44.97
2019-02-02T13:22:14.431Z,39.30
2019-02-02T13:25:02.734Z,44.83
2019-02-02T13:27:43.953Z,44.23
2019-02-02T13:30:24.726Z,46.27
2019-02-02T13:33:05.321Z,41.43
2019-02-02T13:35:45.913Z,42.53
2019-02-02T13:38:26.556Z,44.53
2019-02-02T13:41:07.789Z,40.90
2019-02-02T13:43:48.817Z,40.17
2019-02-02T13:46:30.548Z,43.07
2019-02-02T13:49:11.255Z,35.37
2019-02-02T13:51:52.599Z,42.13
2019-02-02T13:54:34.029Z,39.80
2019-02-02T13:57:14.629Z,38.90
2019-02-02T13:59:55.757Z,41.57
2019-02-02T14:02:36.668Z,41.30
2019-02-02T14:05:17.584Z,40.73
2019-02-02T14:08:00.082Z,43.83
2019-02-02T14:10:40.871Z,45.50
2019-02-02T14:16:34.623Z,37.30
2019-02-02T14:19:15.074Z,40.60
2019-02-02T14:21:56.085Z,40.20
2019-02-02T14:24:37.038Z,39.37
2019-02-02T14:27:17.719Z,41.63
2019-02-02T14:29:58.625Z,38.97
2019-02-02T14:32:39.312Z,42.37
2019-02-02T14:35:20.107Z,44.70
2019-02-02T14:38:01.038Z,43.80
2019-02-02T14:40:41.793Z,38.83
2019-02-02T14:43:22.451Z,40.20
2019-02-02T14:46:03.568Z,36.60
2019-02-02T14:48:44.940Z,39.43
2019-02-02T14:51:14.378Z,41.47
2019-02-02T14:54:02.730Z,41.23
2019-02-02T14:56:50.941Z,47.03
2019-02-02T14:59:32.159Z,38.50
2019-02-02T15:02:12.694Z,39.40
2019-02-02T15:04:52.134Z,41.67
2019-02-02T15:07:40.566Z,46.63
2019-02-02T15:10:21.938Z,43.23
2019-02-02T15:13:02.669Z,42.43
2019-02-02T15:15:44.315Z,39.40
2019-02-02T15:21:18.351Z,42.63
2019-02-02T15:24:06.646Z,38.30
2019-02-02T15:26:47.314Z,42.90
2019-02-02T15:29:27.926Z,39.03
2019-02-02T15:32:08.530Z,40.10
2019-02-02T15:34:49.926Z,41.93
2019-02-02T15:37:31.068Z,47.67
2019-02-02T15:40:11.695Z,44.57
2019-02-02T15:42:53.267Z,47.40
2019-02-02T15:45:33.829Z,46.10
2019-02-02T15:48:15.248Z,50.03
2019-02-02T15:50:56.566Z,49.23
2019-02-02T15:53:38.014Z,45.47
2019-02-02T15:56:18.842Z,45.20
2019-02-02T15:58:59.412Z,49.67
2019-02-02T16:01:40.790Z,49.50
2019-02-02T16:04:22.246Z,48.90
2019-02-02T16:07:02.864Z,50.37
2019-02-02T16:09:44.375Z,54.50
2019-02-02T16:12:25.079Z,53.67
2019-02-02T16:15:05.293Z,55.67
2019-02-02T16:17:53.675Z,44.83
2019-02-02T16:20:34.333Z,44.03
2019-02-02T16:23:15.209Z,41.13
2019-02-02T16:25:56.768Z,48.27
2019-02-02T16:28:37.466Z,54.23
2019-02-02T16:31:17.967Z,47.87
2019-02-02T16:34:02.117Z,43.70
2019-02-02T16:36:41.733Z,45.03
2019-02-02T16:39:22.396Z,49.23
2019-02-02T16:42:03.651Z,45.70
2019-02-02T16:44:44.901Z,49.10
2019-02-02T16:47:24.281Z,56.83
2019-02-02T16:50:05.511Z,49.67
2019-02-02T16:52:46.197Z,46.27
2019-02-02T16:55:26.895Z,45.07
2019-02-02T16:58:07.754Z,50.13
2019-02-02T17:00:48.766Z,48.40
2019-02-02T17:03:29.672Z,49.07
2019-02-02T17:06:11.075Z,48.73
2019-02-02T17:08:51.648Z,47.30
2019-02-02T17:11:32.303Z,45.90
2019-02-02T17:14:13.694Z,45.90
2019-02-02T17:16:54.545Z,53.70
2019-02-02T17:19:35.188Z,49.30
2019-02-02T17:22:16.113Z,52.67
2019-02-02T17:24:57.015Z,50.97
2019-02-02T17:27:38.207Z,56.43
2019-02-02T17:30:18.962Z,52.70
2019-02-02T17:32:59.377Z,65.57
2019-02-02T17:35:47.683Z,57.97
2019-02-02T17:38:28.545Z,62.20
2019-02-02T17:41:09.315Z,67.23
2019-02-02T17:43:50.079Z,57.93
2019-02-02T17:46:31.074Z,63.47
2019-02-02T17:49:12.389Z,65.93
2019-02-02T17:51:53.698Z,64.07
2019-02-02T17:57:36.120Z,64.17
2019-02-02T18:00:18.423Z,54.67
2019-02-02T18:02:59.188Z,53.17
2019-02-02T18:05:40.463Z,56.50
2019-02-02T18:08:21.177Z,53.33
2019-02-02T18:11:02.117Z,53.50
2019-02-02T18:13:42.801Z,60.00
2019-02-02T18:16:23.366Z,59.43
2019-02-02T18:22:06.102Z,58.13
2019-02-02T18:24:46.925Z,55.13
2019-02-02T18:27:27.489Z,54.10
2019-02-02T18:30:08.263Z,63.17
2019-02-02T18:32:50.029Z,59.23
2019-02-02T18:35:31.103Z,57.27
2019-02-02T18:38:12.567Z,54.70
2019-02-02T18:40:54.073Z,57.17
2019-02-02T18:43:34.937Z,58.30
2019-02-02T18:46:15.932Z,69.40
2019-02-02T18:48:57.394Z,55.47
2019-02-02T18:51:38.591Z,62.77
2019-02-02T18:54:19.506Z,49.53
2019-02-02T18:57:00.763Z,66.13
2019-02-02T18:59:42.184Z,64.07
2019-02-02T19:02:23.542Z,61.23
2019-02-02T19:05:04.488Z,62.43
2019-02-02T19:07:45.728Z,60.57
2019-02-02T19:10:26.370Z,54.80
2019-02-02T19:13:07.259Z,58.67
2019-02-02T19:15:48.521Z,52.83
2019-02-02T19:18:29.794Z,58.67
2019-02-02T19:21:11.324Z,55.77
2019-02-02T19:29:13.211Z,55.57
2019-02-02T19:32:01.514Z,61.63
2019-02-02T19:34:42.040Z,49.00
2019-02-02T19:37:22.874Z,54.10
2019-02-02T19:40:04.006Z,58.23
2019-02-02T19:42:45.293Z,56.73
2019-02-02T19:45:26.192Z,64.17
2019-02-02T19:48:07.423Z,62.67
2019-02-02T19:50:48.375Z,60.47
2019-02-02T19:53:31.664Z,58.93
2019-02-02T19:56:11.882Z,52.53
2019-02-02T19:58:53.130Z,54.37
2019-02-02T20:04:32.156Z,58.50
2019-02-02T20:07:13.254Z,66.33
2019-02-02T20:09:54.164Z,56.77
2019-02-02T20:12:34.980Z,61.30
2019-02-02T20:15:15.902Z,59.03
2019-02-02T20:18:08.949Z,54.90
2019-02-02T20:20:39.594Z,65.67
2019-02-02T20:23:20.938Z,57.67
2019-02-02T20:26:02.178Z,62.57
2019-02-02T20:28:42.543Z,60.93
2019-02-02T20:31:23.407Z,56.20
2019-02-02T20:34:04.199Z,59.90
2019-02-02T20:36:45.033Z,56.43
2019-02-02T20:39:25.800Z,61.40
2019-02-02T20:42:07.090Z,60.60
2019-02-02T20:44:47.738Z,65.27
2019-02-02T20:47:28.565Z,56.77
2019-02-02T20:50:09.241Z,62.43
2019-02-02T20:52:50.090Z,70.00
2019-02-02T20:55:30.893Z,62.80
2019-02-02T20:58:11.671Z,72.37
2019-02-02T21:00:52.418Z,52.83
2019-02-02T21:03:33.289Z,75.83
2019-02-02T21:06:14.236Z,69.70
2019-02-02T21:08:54.921Z,58.90
2019-02-02T21:11:36.397Z,58.93
2019-02-02T21:14:17.384Z,62.43
2019-02-02T21:16:58.190Z,62.33
2019-02-02T21:19:39.435Z,58.27
2019-02-02T21:22:20.153Z,56.50
2019-02-02T21:25:01.620Z,56.80
2019-02-02T21:27:42.280Z,56.37
2019-02-02T21:30:23.640Z,54.37
2019-02-02T21:33:04.276Z,46.10
2019-02-02T21:35:45.250Z,58.60
2019-02-02T21:38:24.599Z,61.97
2019-02-02T21:41:05.156Z,56.60
2019-02-02T21:43:46.360Z,61.70
2019-02-02T21:46:27.850Z,64.97
2019-02-02T21:49:08.452Z,70.67
2019-02-02T21:51:49.530Z,65.53
2019-02-02T21:54:30.221Z,65.37
2019-02-02T21:57:11.198Z,58.70
2019-02-02T21:59:52.046Z,70.03
2019-02-02T22:02:32.942Z,61.00
2019-02-02T22:05:14.296Z,62.53
2019-02-02T22:07:55.082Z,66.67
2019-02-02T22:10:36.456Z,62.57
2019-02-02T22:13:17.342Z,65.57
2019-02-02T22:15:57.794Z,66.27
2019-02-02T22:18:39.098Z,62.60
2019-02-02T22:21:20.570Z,68.37
2019-02-02T22:24:04.591Z,68.23
2019-02-02T22:26:45.578Z,68.10
2019-02-02T22:29:26.612Z,67.33
2019-02-02T22:32:08.042Z,68.00
2019-02-02T22:34:49.060Z,62.43
2019-02-02T22:37:28.477Z,57.07
2019-02-02T22:40:09.069Z,57.97
2019-02-02T22:42:48.431Z,56.33
2019-02-02T22:45:29.143Z,60.43
2019-02-02T22:48:10.023Z,58.40
2019-02-02T22:50:49.463Z,63.70
2019-02-02T22:53:30.402Z,62.57
2019-02-02T22:56:11.745Z,71.63
2019-02-02T22:58:52.829Z,68.77
2019-02-02T23:01:33.762Z,82.53
2019-02-02T23:04:14.592Z,72.53
2019-02-02T23:06:55.642Z,75.90
2019-02-02T23:09:37.062Z,73.70
2019-02-02T23:12:17.991Z,69.57
2019-02-02T23:14:58.484Z,71.40
2019-02-02T23:17:39.961Z,81.47
2019-02-02T23:20:20.730Z,71.43
2019-02-02T23:23:01.392Z,61.63
2019-02-02T23:25:42.237Z,66.27
2019-02-02T23:28:23.203Z,74.13
2019-02-02T23:31:04.355Z,54.93
2019-02-02T23:33:45.739Z,60.60
2019-02-02T23:36:26.587Z,66.07
2019-02-02T23:39:07.305Z,68.00
2019-02-02T23:41:49.216Z,61.03
2019-02-02T23:44:30.771Z,67.87
2019-02-02T23:47:08.005Z,68.33
2019-02-02T23:49:47.464Z,70.60
2019-02-02T23:52:35.780Z,69.53
2019-02-02T23:55:05.871Z,77.17
2019-02-02T23:57:35.484Z,65.93
